createdAt,value
2017-12-03T00:01:45.496Z,89.68
2017-12-03T00:04:13.179Z,89.85
2017-12-03T00:06:40.778Z,89.84
2017-12-03T00:09:08.382Z,89.85
2017-12-03T00:11:36.120Z,90.06
2017-12-03T00:14:03.727Z,90.18
2017-12-03T00:16:31.330Z,90.51
2017-12-03T00:18:59.039Z,90.50
2017-12-03T00:21:26.643Z,90.68
2017-12-03T00:23:54.251Z,90.76
2017-12-03T00:26:21.962Z,90.45
2017-12-03T00:28:49.555Z,90.50
2017-12-03T00:31:17.153Z,90.52
2017-12-03T00:33:44.872Z,90.58
2017-12-03T00:36:12.474Z,90.40
2017-12-03T00:38:40.063Z,90.33
2017-12-03T00:41:07.771Z,90.25
2017-12-03T00:43:35.367Z,90.20
2017-12-03T00:46:02.958Z,90.26
2017-12-03T00:48:30.671Z,90.31
2017-12-03T00:50:58.278Z,90.03
2017-12-03T00:53:25.881Z,89.91
2017-12-03T00:55:53.554Z,89.83
2017-12-03T00:58:21.151Z,89.60
2017-12-03T01:00:48.817Z,90.02
2017-12-03T01:03:16.462Z,89.84
2017-12-03T01:05:44.051Z,89.77
2017-12-03T01:08:11.732Z,89.36
2017-12-03T01:10:39.411Z,89.11
2017-12-03T01:13:07.059Z,89.32
2017-12-03T01:15:34.836Z,89.29
2017-12-03T01:18:02.527Z,89.26
2017-12-03T01:20:30.171Z,89.70
2017-12-03T01:22:57.783Z,89.80
2017-12-03T01:25:25.547Z,89.85
2017-12-03T01:27:53.198Z,89.87
2017-12-03T01:30:20.800Z,89.94
2017-12-03T01:32:48.434Z,89.69
2017-12-03T01:35:16.022Z,89.55
2017-12-03T01:37:43.675Z,89.55
2017-12-03T01:40:11.307Z,89.60
2017-12-03T01:42:38.964Z,89.58
2017-12-03T01:45:06.555Z,89.72
2017-12-03T01:47:34.271Z,89.64
2017-12-03T01:50:01.863Z,89.69
2017-12-03T01:52:29.539Z,89.88
2017-12-03T01:54:57.248Z,89.66
2017-12-03T01:57:24.843Z,89.58
2017-12-03T01:59:52.448Z,89.64
2017-12-03T02:02:20.099Z,89.75
2017-12-03T02:04:47.764Z,89.78
2017-12-03T02:07:15.387Z,89.86
2017-12-03T02:09:43.046Z,89.77
2017-12-03T02:12:10.647Z,89.99
2017-12-03T02:14:38.247Z,89.74
2017-12-03T02:17:05.898Z,89.80
2017-12-03T02:19:33.507Z,90.45
2017-12-03T02:22:01.127Z,90.49
2017-12-03T02:24:28.762Z,90.59
2017-12-03T02:26:56.359Z,90.54
2017-12-03T02:29:23.955Z,90.65
2017-12-03T02:31:51.652Z,90.71
2017-12-03T02:34:19.257Z,90.49
2017-12-03T02:36:46.855Z,90.56
2017-12-03T02:39:14.498Z,90.66
2017-12-03T02:41:42.151Z,90.50
2017-12-03T02:44:10.759Z,90.52
2017-12-03T02:46:38.407Z,90.06
2017-12-03T02:49:05.999Z,90.06
2017-12-03T02:51:33.611Z,90.09
2017-12-03T02:54:01.280Z,90.06
2017-12-03T02:56:28.867Z,90.00
2017-12-03T02:58:56.529Z,89.80
2017-12-03T03:01:24.171Z,89.69
2017-12-03T03:03:51.767Z,89.75
2017-12-03T03:06:19.354Z,89.71
2017-12-03T03:08:47.007Z,89.75
2017-12-03T03:11:14.663Z,89.66
2017-12-03T03:13:42.255Z,89.61
2017-12-03T03:16:09.912Z,89.50
2017-12-03T03:18:37.514Z,89.73
2017-12-03T03:21:05.164Z,89.71
2017-12-03T03:23:32.803Z,89.67
2017-12-03T03:26:00.398Z,89.62
2017-12-03T03:28:27.991Z,89.71
2017-12-03T03:30:55.696Z,89.57
2017-12-03T03:33:23.298Z,89.64
2017-12-03T03:35:50.908Z,89.62
2017-12-03T03:38:18.567Z,89.60
2017-12-03T03:40:46.227Z,89.38
2017-12-03T03:43:13.896Z,89.66
2017-12-03T03:45:41.567Z,90.06
2017-12-03T03:48:09.244Z,90.18
2017-12-03T03:50:36.852Z,90.33
2017-12-03T03:53:04.511Z,90.16
2017-12-03T03:55:32.131Z,90.16
2017-12-03T03:57:59.723Z,90.02
2017-12-03T04:00:27.395Z,90.03
2017-12-03T04:02:55.011Z,90.23
2017-12-03T04:05:22.632Z,90.44
2017-12-03T04:07:50.282Z,90.42
2017-12-03T04:10:17.883Z,90.72
2017-12-03T04:12:45.572Z,90.74
2017-12-03T04:15:13.254Z,90.70
2017-12-03T04:17:40.868Z,90.60
2017-12-03T04:20:08.484Z,90.56
2017-12-03T04:22:36.232Z,90.44
2017-12-03T04:25:03.895Z,90.23
2017-12-03T04:27:31.619Z,90.45
2017-12-03T04:29:59.336Z,90.50
2017-12-03T04:32:27.057Z,90.58
2017-12-03T04:34:54.776Z,90.46
2017-12-03T04:37:22.488Z,90.37
2017-12-03T04:39:50.229Z,90.32
2017-12-03T04:42:17.907Z,90.43
2017-12-03T04:44:45.676Z,90.58
2017-12-03T04:47:13.399Z,90.55
2017-12-03T04:49:41.007Z,90.40
2017-12-03T04:52:08.671Z,90.19
2017-12-03T04:54:36.283Z,90.59
2017-12-03T04:57:03.909Z,90.70
2017-12-03T04:59:31.567Z,90.91
2017-12-03T05:01:59.167Z,90.97
2017-12-03T05:04:26.861Z,90.71
2017-12-03T05:06:54.531Z,90.73
2017-12-03T05:09:22.199Z,90.85
2017-12-03T05:11:49.807Z,90.77
2017-12-03T05:14:17.522Z,91.01
2017-12-03T05:16:45.134Z,90.83
2017-12-03T05:19:12.743Z,90.82
2017-12-03T05:21:40.403Z,91.00
2017-12-03T05:24:08.027Z,91.34
2017-12-03T05:26:35.691Z,91.21
2017-12-03T05:29:03.423Z,90.92
2017-12-03T05:31:31.035Z,91.17
2017-12-03T05:33:58.635Z,90.98
2017-12-03T05:36:26.308Z,91.00
2017-12-03T05:38:53.910Z,91.09
2017-12-03T05:41:21.582Z,91.16
2017-12-03T05:43:49.251Z,91.18
2017-12-03T05:46:16.862Z,91.26
2017-12-03T05:48:44.473Z,91.47
2017-12-03T05:51:12.122Z,91.48
2017-12-03T05:53:39.731Z,91.51
2017-12-03T05:56:07.394Z,91.60
2017-12-03T05:58:35.043Z,91.69
2017-12-03T06:01:02.659Z,91.54
2017-12-03T06:03:30.324Z,91.45
2017-12-03T06:05:58.040Z,91.22
2017-12-03T06:08:25.755Z,91.11
2017-12-03T06:10:53.427Z,91.03
2017-12-03T06:13:21.147Z,90.85
2017-12-03T06:15:48.815Z,91.31
2017-12-03T06:18:16.426Z,91.20
2017-12-03T06:20:44.086Z,90.99
2017-12-03T06:23:11.691Z,91.05
2017-12-03T06:25:39.357Z,90.97
2017-12-03T06:28:07.055Z,90.88
2017-12-03T06:30:34.666Z,90.81
2017-12-03T06:33:02.323Z,91.08
2017-12-03T06:35:29.975Z,91.21
2017-12-03T06:37:57.606Z,91.06
2017-12-03T06:40:25.199Z,90.78
2017-12-03T06:42:52.923Z,90.68
2017-12-03T06:45:20.591Z,90.50
2017-12-03T06:47:48.202Z,89.98
2017-12-03T06:50:15.863Z,89.50
2017-12-03T06:52:43.462Z,88.77
2017-12-03T06:55:11.071Z,88.93
2017-12-03T06:57:38.722Z,88.18
2017-12-03T07:00:06.383Z,88.11
2017-12-03T07:02:34.035Z,87.87
2017-12-03T07:05:01.694Z,87.95
2017-12-03T07:07:29.303Z,88.26
2017-12-03T07:09:56.963Z,88.33
2017-12-03T07:12:24.771Z,88.86
2017-12-03T07:14:52.439Z,88.54
2017-12-03T07:17:20.047Z,87.90
2017-12-03T07:19:47.717Z,87.74
2017-12-03T07:22:15.358Z,87.66
2017-12-03T07:24:43.039Z,86.96
2017-12-03T07:27:10.739Z,86.76
2017-12-03T07:29:38.402Z,86.06
2017-12-03T07:32:06.015Z,85.30
2017-12-03T07:34:33.813Z,85.17
2017-12-03T07:37:01.480Z,86.02
2017-12-03T07:39:29.150Z,86.64
2017-12-03T07:41:56.866Z,87.23
2017-12-03T07:44:24.591Z,87.24
2017-12-03T07:46:52.251Z,87.57
2017-12-03T07:49:19.962Z,87.78
2017-12-03T07:51:47.631Z,87.67
2017-12-03T07:54:15.310Z,86.72
2017-12-03T07:56:42.987Z,86.01
2017-12-03T07:59:10.607Z,85.86
2017-12-03T08:01:38.225Z,85.62
2017-12-03T08:04:05.883Z,85.53
2017-12-03T08:06:33.495Z,85.31
2017-12-03T08:09:01.163Z,85.88
2017-12-03T08:11:28.846Z,86.21
2017-12-03T08:13:56.463Z,86.46
2017-12-03T08:16:24.179Z,86.68
2017-12-03T08:18:51.959Z,86.29
2017-12-03T08:21:19.622Z,85.41
2017-12-03T08:23:47.288Z,85.72
2017-12-03T08:26:14.999Z,85.79
2017-12-03T08:28:42.744Z,85.19
2017-12-03T08:31:10.363Z,84.62
2017-12-03T08:33:38.031Z,84.02
2017-12-03T08:36:05.683Z,83.14
2017-12-03T08:38:33.343Z,83.32
2017-12-03T08:41:01.087Z,82.97
2017-12-03T08:43:28.756Z,81.57
2017-12-03T08:45:56.452Z,81.17
2017-12-03T08:48:24.192Z,81.40
2017-12-03T08:50:51.810Z,79.27
2017-12-03T08:53:19.426Z,79.00
2017-12-03T08:55:47.150Z,79.06
2017-12-03T08:58:14.840Z,78.85
2017-12-03T09:00:42.567Z,77.84
2017-12-03T09:03:10.320Z,79.15
2017-12-03T09:05:38.028Z,79.61
2017-12-03T09:08:05.713Z,81.67
2017-12-03T09:10:33.379Z,82.25
2017-12-03T09:13:01.001Z,82.74
2017-12-03T09:15:28.669Z,83.80
2017-12-03T09:17:56.391Z,83.13
2017-12-03T09:20:23.998Z,85.29
2017-12-03T09:22:51.680Z,85.37
2017-12-03T09:25:19.408Z,85.92
2017-12-03T09:27:47.088Z,86.40
2017-12-03T09:30:14.723Z,85.76
2017-12-03T09:32:46.758Z,85.95
2017-12-03T09:35:15.412Z,87.38
2017-12-03T09:37:44.312Z,86.83
2017-12-03T09:40:12.079Z,87.45
2017-12-03T09:42:39.763Z,86.79
2017-12-03T09:45:07.381Z,87.25
2017-12-03T09:47:35.243Z,87.50
2017-12-03T09:50:04.462Z,87.37
2017-12-03T09:52:32.824Z,87.45
2017-12-03T09:55:00.480Z,87.17
2017-12-03T09:57:29.595Z,87.53
2017-12-03T09:59:57.218Z,86.86
2017-12-03T10:02:24.900Z,87.70
2017-12-03T10:04:52.571Z,87.24
2017-12-03T10:07:20.190Z,87.97
2017-12-03T10:09:47.884Z,88.01
2017-12-03T10:12:15.491Z,88.63
2017-12-03T10:14:43.218Z,88.40
2017-12-03T10:17:11.516Z,88.47
2017-12-03T10:19:39.195Z,88.49
2017-12-03T10:22:06.924Z,87.82
2017-12-03T10:24:36.355Z,88.13
2017-12-03T10:27:04.053Z,88.36
2017-12-03T10:29:31.696Z,88.61
2017-12-03T10:32:00.344Z,88.65
2017-12-03T10:34:29.150Z,88.78
2017-12-03T10:36:58.187Z,88.99
2017-12-03T10:39:26.540Z,89.19
2017-12-03T10:41:54.175Z,89.25
2017-12-03T10:44:22.947Z,88.71
2017-12-03T10:46:50.795Z,88.70
2017-12-03T10:49:18.465Z,88.50
2017-12-03T10:51:46.063Z,88.72
2017-12-03T10:54:13.793Z,88.10
2017-12-03T10:56:41.463Z,88.69
2017-12-03T10:59:09.139Z,87.94
2017-12-03T11:01:36.891Z,87.38
2017-12-03T11:04:04.502Z,88.15
2017-12-03T11:06:32.136Z,87.89
2017-12-03T11:08:59.828Z,87.44
2017-12-03T11:11:27.451Z,87.50
2017-12-03T11:13:55.063Z,88.21
